createdAt,value
2022-10-19T00:00:06.774Z,26.40
2022-10-19T00:00:36.891Z,26.42
2022-10-19T00:01:06.999Z,26.40
2022-10-19T00:01:37.160Z,26.43
2022-10-19T00:02:07.216Z,26.42
2022-10-19T00:02:37.248Z,26.43
2022-10-19T00:03:07.237Z,26.43
2022-10-19T00:03:37.421Z,26.44
2022-10-19T00:04:08.798Z,26.40
2022-10-19T00:04:37.474Z,26.43
2022-10-19T00:05:07.585Z,26.42
2022-10-19T00:05:37.693Z,26.43
2022-10-19T00:06:07.806Z,26.42
2022-10-19T00:06:37.915Z,26.43
2022-10-19T00:07:08.031Z,26.40
2022-10-19T00:07:38.151Z,26.42
2022-10-19T00:08:08.141Z,26.42
2022-10-19T00:08:38.250Z,26.42
2022-10-19T00:09:08.365Z,26.42
2022-10-19T00:09:38.473Z,26.42
2022-10-19T00:10:08.591Z,26.42
2022-10-19T00:10:38.725Z,26.40
2022-10-19T00:11:08.815Z,26.42
2022-10-19T00:11:38.921Z,26.40
2022-10-19T00:12:09.033Z,26.40
2022-10-19T00:12:39.233Z,26.42
2022-10-19T00:13:09.254Z,26.40
2022-10-19T00:13:39.366Z,26.42
2022-10-19T00:14:09.476Z,26.40
2022-10-19T00:14:39.588Z,26.42
2022-10-19T00:15:09.704Z,26.42
2022-10-19T00:15:39.813Z,26.40
2022-10-19T00:16:11.434Z,26.42
2022-10-19T00:16:39.945Z,26.42
2022-10-19T00:17:10.055Z,26.42
2022-10-19T00:17:40.176Z,26.42
2022-10-19T00:18:10.165Z,26.42
2022-10-19T00:18:40.275Z,26.42
2022-10-19T00:19:10.390Z,26.42
2022-10-19T00:19:40.504Z,26.40
2022-10-19T00:20:10.611Z,26.42
2022-10-19T00:20:40.726Z,26.40
2022-10-19T00:21:10.841Z,26.42
2022-10-19T00:21:41.022Z,26.43
2022-10-19T00:22:13.178Z,26.39
2022-10-19T00:22:41.041Z,26.40
2022-10-19T00:23:11.050Z,26.40
2022-10-19T00:23:41.039Z,26.42
2022-10-19T00:24:11.147Z,26.40
2022-10-19T00:24:41.260Z,26.40
2022-10-19T00:25:11.369Z,26.39
2022-10-19T00:25:41.502Z,26.42
2022-10-19T00:26:11.596Z,26.40
2022-10-19T00:26:41.707Z,26.42
2022-10-19T00:27:11.823Z,26.40
2022-10-19T00:27:41.933Z,26.40
2022-10-19T00:28:12.068Z,26.40
2022-10-19T00:28:42.115Z,26.39
2022-10-19T00:29:12.206Z,26.39
2022-10-19T00:29:42.179Z,26.40
2022-10-19T00:30:12.296Z,26.40
2022-10-19T00:30:42.434Z,26.39
2022-10-19T00:31:12.427Z,26.40
2022-10-19T00:31:42.550Z,26.42
2022-10-19T00:32:12.653Z,26.40
2022-10-19T00:32:42.768Z,26.37
2022-10-19T00:33:12.910Z,26.39
2022-10-19T00:33:42.891Z,26.39
2022-10-19T00:34:13.004Z,26.40
2022-10-19T00:34:43.116Z,26.39
2022-10-19T00:35:13.226Z,26.40
2022-10-19T00:35:43.340Z,26.40
2022-10-19T00:36:13.449Z,26.39
2022-10-19T00:36:43.558Z,26.37
2022-10-19T00:37:13.672Z,26.39
2022-10-19T00:37:43.781Z,26.40
2022-10-19T00:38:14.001Z,26.39
2022-10-19T00:38:43.982Z,26.39
2022-10-19T00:39:14.101Z,26.39
2022-10-19T00:39:44.126Z,26.39
2022-10-19T00:40:14.099Z,26.40
2022-10-19T00:40:44.232Z,26.42
2022-10-19T00:41:14.328Z,26.37
2022-10-19T00:41:44.436Z,26.40
2022-10-19T00:42:14.548Z,26.37
2022-10-19T00:42:44.663Z,26.39
2022-10-19T00:43:14.780Z,26.37
2022-10-19T00:43:44.771Z,26.39
2022-10-19T00:44:14.883Z,26.37
2022-10-19T00:44:44.998Z,26.40
2022-10-19T00:45:15.113Z,26.39
2022-10-19T00:45:45.223Z,26.36
2022-10-19T00:46:15.343Z,26.40
2022-10-19T00:46:45.456Z,26.37
2022-10-19T00:47:15.570Z,26.37
2022-10-19T00:47:45.682Z,26.39
2022-10-19T00:48:15.809Z,26.39
2022-10-19T00:48:45.958Z,26.40
2022-10-19T00:49:15.907Z,26.42
2022-10-19T00:49:45.982Z,26.37
2022-10-19T00:50:16.057Z,26.37
2022-10-19T00:50:46.128Z,26.36
2022-10-19T00:51:16.202Z,26.37
2022-10-19T00:51:46.292Z,26.36
2022-10-19T00:52:16.362Z,26.39
2022-10-19T00:52:46.443Z,26.40
2022-10-19T00:53:16.532Z,26.39
2022-10-19T00:53:46.598Z,26.39
2022-10-19T00:54:16.677Z,26.37
2022-10-19T00:54:46.749Z,26.37
2022-10-19T00:55:16.837Z,26.37
2022-10-19T00:55:46.936Z,26.37
2022-10-19T00:56:16.991Z,26.39
2022-10-19T00:56:47.068Z,26.37
2022-10-19T00:57:17.164Z,26.36
2022-10-19T00:57:47.266Z,26.37
2022-10-19T00:58:17.331Z,26.39
2022-10-19T00:58:47.435Z,26.39
2022-10-19T00:59:17.548Z,26.39
2022-10-19T00:59:47.659Z,26.39
2022-10-19T01:00:17.770Z,26.39
2022-10-19T01:00:48.002Z,26.36
2022-10-19T01:01:18.047Z,26.40
2022-10-19T01:01:47.888Z,26.37
2022-10-19T01:02:18.018Z,26.37
2022-10-19T01:02:48.009Z,26.37
2022-10-19T01:03:18.121Z,26.37
2022-10-19T01:03:48.232Z,26.36
2022-10-19T01:04:18.345Z,26.37
2022-10-19T01:04:48.464Z,26.36
2022-10-19T01:05:18.568Z,26.37
2022-10-19T01:05:48.685Z,26.36
2022-10-19T01:06:18.797Z,26.36
2022-10-19T01:06:48.909Z,26.36
2022-10-19T01:07:19.037Z,26.36
2022-10-19T01:07:49.143Z,26.34
2022-10-19T01:08:19.261Z,26.37
2022-10-19T01:08:49.368Z,26.37
2022-10-19T01:09:19.480Z,26.37
2022-10-19T01:09:49.591Z,26.37
2022-10-19T01:10:19.702Z,26.37
2022-10-19T01:10:49.833Z,26.34
2022-10-19T01:11:19.924Z,26.39
2022-10-19T01:11:50.052Z,26.37
2022-10-19T01:12:20.166Z,26.37
2022-10-19T01:12:50.156Z,26.39
2022-10-19T01:13:20.293Z,26.37
2022-10-19T01:13:50.284Z,26.37
2022-10-19T01:14:20.396Z,26.36
2022-10-19T01:14:50.510Z,26.39
2022-10-19T01:15:20.625Z,26.40
2022-10-19T01:15:50.669Z,26.37
2022-10-19T01:16:20.654Z,26.39
2022-10-19T01:16:50.765Z,26.36
2022-10-19T01:17:20.875Z,26.36
2022-10-19T01:17:50.991Z,26.37
2022-10-19T01:18:21.108Z,26.36
2022-10-19T01:18:51.220Z,26.37
2022-10-19T01:19:21.339Z,26.37
2022-10-19T01:19:51.447Z,26.42
2022-10-19T01:20:21.557Z,26.39
2022-10-19T01:20:51.669Z,26.37
2022-10-19T01:21:21.777Z,26.39
2022-10-19T01:21:51.893Z,26.39
2022-10-19T01:22:22.003Z,26.40
2022-10-19T01:22:52.121Z,26.42
2022-10-19T01:23:22.252Z,26.37
2022-10-19T01:23:52.239Z,26.40
2022-10-19T01:24:22.348Z,26.39
2022-10-19T01:24:52.473Z,26.39
2022-10-19T01:25:22.577Z,26.39
2022-10-19T01:25:52.715Z,26.39
2022-10-19T01:26:22.804Z,26.37
2022-10-19T01:26:52.912Z,26.39
2022-10-19T01:27:23.027Z,26.39
2022-10-19T01:27:53.135Z,26.40
2022-10-19T01:28:23.250Z,26.39
2022-10-19T01:28:53.285Z,26.40
2022-10-19T01:29:23.241Z,26.40
2022-10-19T01:29:53.361Z,26.42
2022-10-19T01:30:23.472Z,26.39
2022-10-19T01:30:53.594Z,26.39
2022-10-19T01:31:23.701Z,26.39
2022-10-19T01:31:53.808Z,26.39
2022-10-19T01:32:23.918Z,26.40
2022-10-19T01:32:54.037Z,26.39
2022-10-19T01:33:24.154Z,26.39
2022-10-19T01:33:54.231Z,26.39
2022-10-19T01:34:24.203Z,26.37
2022-10-19T01:34:54.312Z,26.37
2022-10-19T01:35:24.426Z,26.37
2022-10-19T01:35:54.541Z,26.37
2022-10-19T01:36:24.660Z,26.39
2022-10-19T01:36:54.769Z,26.39
2022-10-19T01:37:24.937Z,26.36
2022-10-19T01:37:54.923Z,26.36
2022-10-19T01:38:25.035Z,26.36
2022-10-19T01:38:55.145Z,26.37
2022-10-19T01:39:25.262Z,26.36
2022-10-19T01:39:55.372Z,26.36
2022-10-19T01:40:25.485Z,26.37
2022-10-19T01:40:55.624Z,26.39
2022-10-19T01:41:25.714Z,26.36
2022-10-19T01:41:55.822Z,26.36
2022-10-19T01:42:25.940Z,26.37
2022-10-19T01:42:56.053Z,26.36
2022-10-19T01:43:26.165Z,26.34
2022-10-19T01:43:56.276Z,26.36
2022-10-19T01:44:26.391Z,26.36
2022-10-19T01:44:56.498Z,26.34
2022-10-19T01:45:26.612Z,26.36
2022-10-19T01:45:56.722Z,26.36
2022-10-19T01:46:26.835Z,26.36
2022-10-19T01:46:56.947Z,26.37
2022-10-19T01:47:27.261Z,26.34
2022-10-19T01:47:57.126Z,26.36
2022-10-19T01:48:27.232Z,26.36
2022-10-19T01:48:57.304Z,26.36
2022-10-19T01:49:27.377Z,26.36
2022-10-19T01:49:57.452Z,26.39
2022-10-19T01:50:27.530Z,26.34
2022-10-19T01:50:57.600Z,26.36
2022-10-19T01:51:27.676Z,26.33
2022-10-19T01:52:27.791Z,26.34
2022-10-19T01:52:57.877Z,26.33
2022-10-19T01:53:27.989Z,26.37
2022-10-19T01:53:58.071Z,26.34
2022-10-19T01:54:28.144Z,26.33
2022-10-19T01:54:58.219Z,26.34
2022-10-19T01:55:28.294Z,26.36
2022-10-19T01:55:58.367Z,26.34
2022-10-19T01:56:28.464Z,26.36
2022-10-19T01:56:58.516Z,26.36
2022-10-19T01:57:28.610Z,26.34
2022-10-19T01:57:58.692Z,26.34
2022-10-19T01:58:28.766Z,26.32
2022-10-19T01:58:58.876Z,26.34
2022-10-19T01:59:28.991Z,26.34
2022-10-19T01:59:59.098Z,26.34
2022-10-19T02:00:29.222Z,26.33
2022-10-19T02:00:59.493Z,26.34
2022-10-19T02:01:29.417Z,26.33
2022-10-19T02:01:59.529Z,26.36
2022-10-19T02:02:29.656Z,26.33
2022-10-19T02:02:59.643Z,26.33
2022-10-19T02:03:29.753Z,26.30
2022-10-19T02:03:59.864Z,26.34
2022-10-19T02:04:29.981Z,26.33
2022-10-19T02:05:00.091Z,26.36
2022-10-19T02:05:30.205Z,26.34
2022-10-19T02:06:00.316Z,26.32
2022-10-19T02:06:30.424Z,26.32
2022-10-19T02:07:00.537Z,26.33
2022-10-19T02:07:30.662Z,26.36
2022-10-19T02:08:00.774Z,26.33
2022-10-19T02:08:30.892Z,26.33
2022-10-19T02:09:01.002Z,26.30
2022-10-19T02:09:31.107Z,26.32
2022-10-19T02:10:01.306Z,26.34
2022-10-19T02:10:31.294Z,26.30
2022-10-19T02:11:01.407Z,26.30
2022-10-19T02:11:31.544Z,26.33
2022-10-19T02:12:01.645Z,26.34
2022-10-19T02:12:32.122Z,26.32
2022-10-19T02:13:01.818Z,26.33
2022-10-19T02:13:31.867Z,26.32
2022-10-19T02:14:01.983Z,26.34
2022-10-19T02:14:32.095Z,26.33
2022-10-19T02:15:02.213Z,26.34
2022-10-19T02:15:32.315Z,26.34
2022-10-19T02:16:02.431Z,26.33
2022-10-19T02:16:32.545Z,26.33
2022-10-19T02:17:02.545Z,26.32
2022-10-19T02:17:32.652Z,26.33
2022-10-19T02:18:02.767Z,26.32
2022-10-19T02:18:32.881Z,26.33
2022-10-19T02:19:02.985Z,26.34
2022-10-19T02:19:33.096Z,26.32
2022-10-19T02:20:03.207Z,26.33
2022-10-19T02:20:33.316Z,26.33
2022-10-19T02:21:03.450Z,26.33
2022-10-19T02:21:33.547Z,26.33
2022-10-19T02:22:03.556Z,26.33
2022-10-19T02:22:34.024Z,26.34
2022-10-19T02:23:03.757Z,26.32
2022-10-19T02:23:33.867Z,26.32
2022-10-19T02:24:03.976Z,26.33
2022-10-19T02:24:34.087Z,26.32
2022-10-19T02:25:04.200Z,26.33
2022-10-19T02:25:34.312Z,26.34
2022-10-19T02:26:04.423Z,26.34
2022-10-19T02:26:34.563Z,26.34
2022-10-19T02:27:04.643Z,26.33
2022-10-19T02:27:34.758Z,26.33
2022-10-19T02:28:04.873Z,26.32
2022-10-19T02:28:34.993Z,26.32
2022-10-19T02:29:05.127Z,26.32
2022-10-19T02:29:35.125Z,26.32
2022-10-19T02:30:05.236Z,26.33
2022-10-19T02:30:35.353Z,26.30
2022-10-19T02:31:05.461Z,26.30
2022-10-19T02:31:35.573Z,26.33
2022-10-19T02:32:05.688Z,26.32
2022-10-19T02:32:35.934Z,26.30
2022-10-19T02:33:05.860Z,26.33
2022-10-19T02:33:35.969Z,26.32
2022-10-19T02:34:06.081Z,26.33
2022-10-19T02:34:36.197Z,26.32
2022-10-19T02:35:06.306Z,26.32
2022-10-19T02:35:36.422Z,26.33
2022-10-19T02:36:06.537Z,26.33
2022-10-19T02:36:36.646Z,26.30
2022-10-19T02:37:06.762Z,26.32
2022-10-19T02:38:06.950Z,26.32
2022-10-19T02:38:37.064Z,26.32
2022-10-19T02:39:07.178Z,26.30
2022-10-19T02:39:37.295Z,26.32
2022-10-19T02:40:07.409Z,26.32
2022-10-19T02:40:37.514Z,26.33
2022-10-19T02:41:07.631Z,26.32
2022-10-19T02:41:37.764Z,26.33
2022-10-19T02:42:07.858Z,26.33
2022-10-19T02:42:37.978Z,26.30
2022-10-19T02:43:08.088Z,26.33
2022-10-19T02:43:38.197Z,26.32
2022-10-19T02:44:08.313Z,26.30
2022-10-19T02:44:38.425Z,26.33
2022-10-19T02:45:08.417Z,26.33
2022-10-19T02:45:38.530Z,26.32
2022-10-19T02:46:08.645Z,26.33
2022-10-19T02:47:08.828Z,26.32
2022-10-19T02:47:38.949Z,26.32
2022-10-19T02:48:09.067Z,26.30
2022-10-19T02:48:39.148Z,26.33
2022-10-19T02:49:09.225Z,26.32
2022-10-19T02:49:39.301Z,26.34
2022-10-19T02:50:09.377Z,26.32
2022-10-19T02:50:39.449Z,26.32
2022-10-19T02:51:09.528Z,26.32
2022-10-19T02:51:39.605Z,26.32
2022-10-19T02:52:09.680Z,26.30
2022-10-19T02:52:39.772Z,26.32
2022-10-19T02:53:09.852Z,26.32
2022-10-19T02:53:39.924Z,26.30
2022-10-19T02:54:09.997Z,26.30
2022-10-19T02:54:40.074Z,26.32
2022-10-19T02:55:10.160Z,26.29
2022-10-19T02:56:10.243Z,26.33
2022-10-19T02:56:40.338Z,26.30
2022-10-19T02:57:10.395Z,26.32
2022-10-19T02:57:40.468Z,26.30
2022-10-19T02:58:10.541Z,26.32
2022-10-19T02:58:40.639Z,26.30
2022-10-19T02:59:10.748Z,26.32
2022-10-19T02:59:40.864Z,26.30
2022-10-19T03:00:10.983Z,26.30
2022-10-19T03:00:41.193Z,26.30
2022-10-19T03:01:11.346Z,26.29
2022-10-19T03:01:41.230Z,26.30
2022-10-19T03:02:11.342Z,26.29
2022-10-19T03:02:41.457Z,26.33
2022-10-19T03:03:11.569Z,26.30
2022-10-19T03:03:41.686Z,26.27
2022-10-19T03:04:11.799Z,26.30
2022-10-19T03:04:41.957Z,26.32
2022-10-19T03:05:11.964Z,26.29
2022-10-19T03:05:42.074Z,26.29
2022-10-19T03:06:12.189Z,26.32
2022-10-19T03:06:42.301Z,26.30
2022-10-19T03:07:12.412Z,26.29
2022-10-19T03:07:42.537Z,26.30
2022-10-19T03:08:12.520Z,26.30
2022-10-19T03:08:42.636Z,26.30
2022-10-19T03:09:12.747Z,26.29
2022-10-19T03:09:42.859Z,26.32
2022-10-19T03:10:12.971Z,26.32
2022-10-19T03:10:43.086Z,26.30
2022-10-19T03:11:13.198Z,26.29
2022-10-19T03:11:43.335Z,26.32
2022-10-19T03:12:13.423Z,26.32
2022-10-19T03:12:43.543Z,26.29
2022-10-19T03:13:13.533Z,26.30
2022-10-19T03:13:43.702Z,26.29
2022-10-19T03:14:13.698Z,26.27
2022-10-19T03:14:43.815Z,26.29
2022-10-19T03:15:13.928Z,26.32
2022-10-19T03:15:43.921Z,26.32
2022-10-19T03:16:14.031Z,26.32
2022-10-19T03:16:44.146Z,26.30
2022-10-19T03:17:14.257Z,26.32
2022-10-19T03:17:44.371Z,26.29
2022-10-19T03:18:14.493Z,26.29
2022-10-19T03:18:44.595Z,26.32
2022-10-19T03:19:14.708Z,26.29
2022-10-19T03:19:44.824Z,26.29
2022-10-19T03:20:14.934Z,26.30
2022-10-19T03:20:45.050Z,26.27
2022-10-19T03:21:15.161Z,26.30
2022-10-19T03:21:45.273Z,26.29
2022-10-19T03:22:15.267Z,26.30
2022-10-19T03:22:45.417Z,26.29
2022-10-19T03:23:15.396Z,26.30
2022-10-19T03:23:45.386Z,26.30
2022-10-19T03:24:15.492Z,26.29
2022-10-19T03:24:45.603Z,26.29
2022-10-19T03:25:15.716Z,26.29
2022-10-19T03:25:45.830Z,26.29
2022-10-19T03:26:15.943Z,26.29
2022-10-19T03:26:46.055Z,26.27
2022-10-19T03:27:16.188Z,26.30
2022-10-19T03:27:46.295Z,26.29
2022-10-19T03:28:16.283Z,26.27
2022-10-19T03:28:46.349Z,26.30
2022-10-19T03:29:16.355Z,26.30
2022-10-19T03:29:46.471Z,26.30
2022-10-19T03:30:16.586Z,26.29
2022-10-19T03:30:46.578Z,26.29
2022-10-19T03:31:16.692Z,26.29
2022-10-19T03:31:46.821Z,26.29
2022-10-19T03:32:16.929Z,26.29
2022-10-19T03:32:47.046Z,26.30
2022-10-19T03:33:17.231Z,26.30
2022-10-19T03:33:47.194Z,26.29
2022-10-19T03:34:17.303Z,26.30
2022-10-19T03:34:47.421Z,26.30
2022-10-19T03:35:17.533Z,26.30
2022-10-19T03:35:47.647Z,26.29
2022-10-19T03:36:17.759Z,26.30
2022-10-19T03:36:47.875Z,26.29
2022-10-19T03:37:17.986Z,26.30
2022-10-19T03:37:48.106Z,26.30
2022-10-19T03:38:18.090Z,26.30
2022-10-19T03:38:48.206Z,26.29
2022-10-19T03:39:18.318Z,26.29
2022-10-19T03:39:48.430Z,26.32
2022-10-19T03:40:18.539Z,26.32
2022-10-19T03:40:48.661Z,26.32
2022-10-19T03:41:18.771Z,26.32
2022-10-19T03:41:48.887Z,26.29
2022-10-19T03:42:19.022Z,26.29
2022-10-19T03:42:49.117Z,26.29
2022-10-19T03:43:19.228Z,26.30
2022-10-19T03:43:49.415Z,26.29
2022-10-19T03:44:19.405Z,26.32
2022-10-19T03:44:49.519Z,26.29
2022-10-19T03:45:19.632Z,26.30
2022-10-19T03:45:49.744Z,26.29
2022-10-19T03:46:19.739Z,26.29
2022-10-19T03:46:49.850Z,26.30
2022-10-19T03:47:19.966Z,26.29
2022-10-19T03:47:50.082Z,26.30
2022-10-19T03:48:20.193Z,26.29
2022-10-19T03:48:50.269Z,26.30
2022-10-19T03:49:20.344Z,26.30
2022-10-19T03:49:50.420Z,26.29
2022-10-19T03:50:20.492Z,26.32
2022-10-19T03:50:50.567Z,26.29
2022-10-19T03:51:20.642Z,26.30
2022-10-19T03:51:50.712Z,26.26
2022-10-19T03:52:20.791Z,26.27
2022-10-19T03:52:50.931Z,26.24
2022-10-19T03:53:20.978Z,26.26
2022-10-19T03:53:51.054Z,26.27
2022-10-19T03:54:23.677Z,26.26
2022-10-19T03:54:51.231Z,26.26
2022-10-19T03:55:21.310Z,26.24
2022-10-19T03:55:51.384Z,26.24
2022-10-19T03:56:21.456Z,26.26
2022-10-19T03:56:51.532Z,26.24
2022-10-19T03:57:21.631Z,26.23
2022-10-19T03:57:51.688Z,26.26
2022-10-19T03:58:21.759Z,26.26
2022-10-19T03:58:51.877Z,26.27
2022-10-19T03:59:21.985Z,26.26
2022-10-19T03:59:52.100Z,26.24
2022-10-19T04:00:22.213Z,26.24
2022-10-19T04:00:52.359Z,26.23
2022-10-19T04:01:22.437Z,26.26
2022-10-19T04:01:52.425Z,26.24
2022-10-19T04:02:22.528Z,26.24
2022-10-19T04:02:52.695Z,26.26
2022-10-19T04:03:22.737Z,26.24
2022-10-19T04:03:52.750Z,26.24
2022-10-19T04:04:22.745Z,26.29
2022-10-19T04:04:52.853Z,26.27
2022-10-19T04:05:22.844Z,26.27
2022-10-19T04:05:52.960Z,26.30
2022-10-19T04:06:23.071Z,26.29
2022-10-19T04:06:53.192Z,26.29
2022-10-19T04:07:23.300Z,26.27
2022-10-19T04:07:53.413Z,26.29
2022-10-19T04:08:23.523Z,26.30
2022-10-19T04:08:53.629Z,26.32
2022-10-19T04:09:23.745Z,26.29
2022-10-19T04:09:53.853Z,26.32
2022-10-19T04:10:23.966Z,26.33
2022-10-19T04:10:54.078Z,26.33
2022-10-19T04:11:24.225Z,26.33
2022-10-19T04:11:54.198Z,26.33
2022-10-19T04:12:24.337Z,26.33
2022-10-19T04:12:54.430Z,26.36
2022-10-19T04:13:24.545Z,26.36
2022-10-19T04:13:54.656Z,26.36
2022-10-19T04:14:32.664Z,26.34
2022-10-19T04:14:58.042Z,26.34
2022-10-19T04:15:24.786Z,26.36
2022-10-19T04:15:54.898Z,26.36
2022-10-19T04:16:25.007Z,26.36
2022-10-19T04:16:55.122Z,26.36
2022-10-19T04:17:25.234Z,26.39
2022-10-19T04:17:55.345Z,26.36
2022-10-19T04:18:25.460Z,26.37
2022-10-19T04:18:55.576Z,26.37
2022-10-19T04:19:25.571Z,26.36
2022-10-19T04:19:55.689Z,26.39
2022-10-19T04:20:25.794Z,26.40
2022-10-19T04:20:55.908Z,26.37
2022-10-19T04:21:26.019Z,26.36
2022-10-19T04:21:56.128Z,26.39
2022-10-19T04:22:26.243Z,26.37
2022-10-19T04:22:56.357Z,26.43
2022-10-19T04:23:26.467Z,26.39
2022-10-19T04:23:56.580Z,26.37
2022-10-19T04:24:26.687Z,26.37
2022-10-19T04:24:56.803Z,26.34
2022-10-19T04:25:26.913Z,26.34
2022-10-19T04:25:57.026Z,26.36
2022-10-19T04:26:27.143Z,26.34
2022-10-19T04:26:57.265Z,26.34
2022-10-19T04:27:27.391Z,26.36
2022-10-19T04:27:57.488Z,26.36
2022-10-19T04:28:27.628Z,26.37
2022-10-19T04:28:57.700Z,26.34
2022-10-19T04:29:29.989Z,26.36
2022-10-19T04:29:57.751Z,26.36
2022-10-19T04:30:27.864Z,26.36
2022-10-19T04:30:57.980Z,26.39
2022-10-19T04:31:28.093Z,26.39
2022-10-19T04:31:58.208Z,26.42
2022-10-19T04:32:28.324Z,26.42
2022-10-19T04:32:58.446Z,26.40
2022-10-19T04:33:28.428Z,26.43
2022-10-19T04:33:58.535Z,26.33
2022-10-19T04:34:28.656Z,26.36
2022-10-19T04:34:58.780Z,26.36
2022-10-19T04:35:28.765Z,26.36
2022-10-19T04:35:58.879Z,26.36
2022-10-19T04:36:28.991Z,26.39
2022-10-19T04:36:59.111Z,26.39
2022-10-19T04:37:29.219Z,26.40
2022-10-19T04:37:59.344Z,26.42
2022-10-19T04:38:29.330Z,26.42
2022-10-19T04:38:59.439Z,26.43
2022-10-19T04:39:29.554Z,26.43
2022-10-19T04:39:59.668Z,26.46
2022-10-19T04:40:29.778Z,26.46
2022-10-19T04:40:59.894Z,26.46
2022-10-19T04:41:30.059Z,26.48
2022-10-19T04:42:00.041Z,26.48
2022-10-19T04:42:30.176Z,26.51
2022-10-19T04:43:00.271Z,26.48
2022-10-19T04:43:30.261Z,26.50
2022-10-19T04:44:00.373Z,26.50
2022-10-19T04:44:30.489Z,26.50
2022-10-19T04:45:00.606Z,26.50
2022-10-19T04:45:30.722Z,26.50
2022-10-19T04:46:00.830Z,26.44
2022-10-19T04:46:30.946Z,26.47
2022-10-19T04:47:01.059Z,26.47
2022-10-19T04:47:31.314Z,26.47
2022-10-19T04:48:01.235Z,26.47
2022-10-19T04:48:31.328Z,26.46
2022-10-19T04:49:01.405Z,26.47
2022-10-19T04:49:31.478Z,26.47
2022-10-19T04:50:01.578Z,26.46
2022-10-19T04:50:31.627Z,26.44
2022-10-19T04:51:01.700Z,26.44
2022-10-19T04:51:31.774Z,26.44
2022-10-19T04:52:01.850Z,26.44
2022-10-19T04:52:31.938Z,26.43
2022-10-19T04:53:02.045Z,26.46
2022-10-19T04:53:32.121Z,26.46
2022-10-19T04:54:02.202Z,26.46
2022-10-19T04:54:32.266Z,26.47
2022-10-19T04:55:02.339Z,26.47
2022-10-19T04:55:32.412Z,26.47
2022-10-19T04:56:02.503Z,26.47
2022-10-19T04:56:32.712Z,26.48
2022-10-19T04:57:02.645Z,26.50
2022-10-19T04:57:33.103Z,26.50
2022-10-19T04:58:02.857Z,26.50
2022-10-19T04:58:32.935Z,26.51
2022-10-19T04:59:03.044Z,26.50
2022-10-19T04:59:33.174Z,26.51
2022-10-19T05:00:03.195Z,26.54
2022-10-19T05:00:33.312Z,26.53
2022-10-19T05:01:03.360Z,26.54
2022-10-19T05:01:33.394Z,26.54
2022-10-19T05:02:03.509Z,26.53
2022-10-19T05:02:33.641Z,26.53
2022-10-19T05:03:03.670Z,26.54
2022-10-19T05:03:33.668Z,26.54
2022-10-19T05:04:03.780Z,26.57
2022-10-19T05:04:33.908Z,26.57
2022-10-19T05:05:03.983Z,26.57
2022-10-19T05:05:34.023Z,26.57
2022-10-19T05:06:04.051Z,26.55
2022-10-19T05:06:34.074Z,26.57
2022-10-19T05:07:04.099Z,26.60
2022-10-19T05:07:34.415Z,26.60
2022-10-19T05:08:04.134Z,26.61
2022-10-19T05:08:34.146Z,26.61
2022-10-19T05:09:04.273Z,26.61
2022-10-19T05:09:34.265Z,26.63
2022-10-19T05:10:04.379Z,26.64
2022-10-19T05:10:34.493Z,26.64
2022-10-19T05:11:04.615Z,26.65
2022-10-19T05:11:34.737Z,26.68
2022-10-19T05:12:04.743Z,26.68
2022-10-19T05:12:34.738Z,26.70
2022-10-19T05:13:04.789Z,26.70
2022-10-19T05:13:34.878Z,26.73
2022-10-19T05:14:04.991Z,26.73
2022-10-19T05:14:36.788Z,26.74
2022-10-19T05:15:05.149Z,26.74
2022-10-19T05:15:35.262Z,26.75
2022-10-19T05:16:05.370Z,26.75
2022-10-19T05:16:35.506Z,26.80
2022-10-19T05:17:05.527Z,26.80
2022-10-19T05:17:35.920Z,26.78
2022-10-19T05:18:05.585Z,26.78
2022-10-19T05:18:35.572Z,26.82
2022-10-19T05:19:05.569Z,26.82
2022-10-19T05:19:35.697Z,26.82
2022-10-19T05:20:05.685Z,26.81
2022-10-19T05:20:35.797Z,26.85
2022-10-19T05:21:05.911Z,26.82
2022-10-19T05:21:36.038Z,26.87
2022-10-19T05:22:06.047Z,26.85
2022-10-19T05:22:36.163Z,26.88
2022-10-19T05:23:07.274Z,26.88
2022-10-19T05:23:36.159Z,26.88
2022-10-19T05:24:06.295Z,26.90
2022-10-19T05:24:36.277Z,26.90
2022-10-19T05:25:06.274Z,26.90
2022-10-19T05:25:36.386Z,26.90
2022-10-19T05:26:06.496Z,26.91
2022-10-19T05:26:36.611Z,26.91
2022-10-19T05:27:06.719Z,26.88
2022-10-19T05:27:37.170Z,26.92
2022-10-19T05:28:06.868Z,26.91
2022-10-19T05:28:37.085Z,26.91
2022-10-19T05:29:07.112Z,26.92
2022-10-19T05:29:37.071Z,26.92
2022-10-19T05:30:07.177Z,26.91
2022-10-19T05:30:37.292Z,26.94
2022-10-19T05:31:07.463Z,26.92
2022-10-19T05:31:37.451Z,26.94
2022-10-19T05:32:07.562Z,26.95
2022-10-19T05:32:37.671Z,26.97
2022-10-19T05:33:07.786Z,26.95
2022-10-19T05:33:37.899Z,26.98
2022-10-19T05:34:38.092Z,26.98
2022-10-19T05:35:08.203Z,26.98
2022-10-19T05:35:38.314Z,27.01
2022-10-19T05:36:08.428Z,27.02
2022-10-19T05:36:38.544Z,27.01
2022-10-19T05:37:08.656Z,27.02
2022-10-19T05:37:38.660Z,27.02
2022-10-19T05:38:08.775Z,27.03
2022-10-19T05:38:38.887Z,27.05
2022-10-19T05:39:09.007Z,27.06
2022-10-19T05:39:39.105Z,27.05
2022-10-19T05:40:09.217Z,27.08
2022-10-19T05:40:39.345Z,27.08
2022-10-19T05:41:09.327Z,27.09
2022-10-19T05:41:39.469Z,27.06
2022-10-19T05:42:09.453Z,27.11
2022-10-19T05:42:39.567Z,27.11
2022-10-19T05:43:09.679Z,27.13
2022-10-19T05:43:39.819Z,27.12
2022-10-19T05:44:09.907Z,27.12
2022-10-19T05:44:40.055Z,27.15
2022-10-19T05:45:10.131Z,27.15
2022-10-19T05:45:40.247Z,27.13
2022-10-19T05:46:10.370Z,27.15
2022-10-19T05:46:40.476Z,27.13
2022-10-19T05:47:10.587Z,27.16
2022-10-19T05:47:40.705Z,27.16
2022-10-19T05:48:10.694Z,27.15
2022-10-19T05:48:40.776Z,27.18
2022-10-19T05:49:10.852Z,27.13
2022-10-19T05:49:40.927Z,27.12
2022-10-19T05:50:11.005Z,27.15
2022-10-19T05:50:41.091Z,27.15
2022-10-19T05:51:11.160Z,27.15
2022-10-19T05:51:41.244Z,27.15
2022-10-19T05:52:11.313Z,27.18
2022-10-19T05:52:41.397Z,27.18
2022-10-19T05:53:11.472Z,27.16
2022-10-19T05:53:41.544Z,27.16
2022-10-19T05:54:11.617Z,27.19
2022-10-19T05:54:41.689Z,27.22
2022-10-19T05:55:11.760Z,27.21
2022-10-19T05:55:41.835Z,27.23
2022-10-19T05:56:11.905Z,27.25
2022-10-19T05:56:41.983Z,27.25
2022-10-19T05:57:12.056Z,27.26
2022-10-19T05:57:42.138Z,27.29
2022-10-19T05:58:12.213Z,27.29
2022-10-19T05:58:42.342Z,27.32
2022-10-19T05:59:12.423Z,27.29
2022-10-19T05:59:42.539Z,27.32
2022-10-19T06:00:12.678Z,27.33
2022-10-19T06:00:42.774Z,27.32
2022-10-19T06:01:12.877Z,27.33
2022-10-19T06:01:43.061Z,27.33
2022-10-19T06:02:13.120Z,27.33
2022-10-19T06:02:43.084Z,27.36
2022-10-19T06:03:13.069Z,27.33
2022-10-19T06:03:43.182Z,27.38
2022-10-19T06:04:13.332Z,27.32
2022-10-19T06:04:43.302Z,27.34
2022-10-19T06:05:13.412Z,27.36
2022-10-19T06:05:43.530Z,27.32
2022-10-19T06:06:13.520Z,27.32
2022-10-19T06:06:43.638Z,27.33
2022-10-19T06:07:13.818Z,27.33
2022-10-19T06:07:43.790Z,27.33
2022-10-19T06:08:13.991Z,27.33
2022-10-19T06:08:43.949Z,27.32
2022-10-19T06:09:14.058Z,27.32
2022-10-19T06:09:44.170Z,27.30
2022-10-19T06:10:14.287Z,27.32
2022-10-19T06:10:44.400Z,27.32
2022-10-19T06:11:14.531Z,27.30
2022-10-19T06:11:44.621Z,27.30
2022-10-19T06:12:16.228Z,27.30
2022-10-19T06:12:44.818Z,27.29
2022-10-19T06:13:14.924Z,27.26
2022-10-19T06:13:45.062Z,27.28
2022-10-19T06:14:15.150Z,27.28
2022-10-19T06:15:15.375Z,27.18
2022-10-19T06:15:45.484Z,27.18
2022-10-19T06:16:15.592Z,27.18
2022-10-19T06:16:45.738Z,27.16
2022-10-19T06:17:15.708Z,27.16
2022-10-19T06:17:45.847Z,27.19
2022-10-19T06:18:15.834Z,27.18
2022-10-19T06:18:45.952Z,27.15
2022-10-19T06:19:16.064Z,27.15
2022-10-19T06:19:46.177Z,27.16
2022-10-19T06:20:16.292Z,27.16
2022-10-19T06:20:46.404Z,27.15
2022-10-19T06:21:16.526Z,27.18
2022-10-19T06:21:46.514Z,27.18
2022-10-19T06:22:16.727Z,27.18
2022-10-19T06:22:46.635Z,27.21
2022-10-19T06:23:16.634Z,27.21
2022-10-19T06:23:46.630Z,27.21
2022-10-19T06:24:16.730Z,27.22
2022-10-19T06:24:46.842Z,27.22
2022-10-19T06:25:20.178Z,27.23
2022-10-19T06:25:47.065Z,27.23
2022-10-19T06:26:17.175Z,27.25
2022-10-19T06:26:47.295Z,27.26
2022-10-19T06:27:17.459Z,27.25
2022-10-19T06:27:47.496Z,27.26
2022-10-19T06:28:17.454Z,27.25
2022-10-19T06:28:47.563Z,27.29
2022-10-19T06:29:17.700Z,27.30
2022-10-19T06:29:47.785Z,27.32
2022-10-19T06:30:17.921Z,27.32